createdAt,value
2019-05-25T00:02:08.202Z,17.90
2019-05-25T00:04:35.849Z,17.80
2019-05-25T00:07:03.508Z,17.70
2019-05-25T00:09:31.165Z,17.80
2019-05-25T00:11:58.873Z,17.80
2019-05-25T00:14:26.561Z,17.80
2019-05-25T00:16:54.214Z,17.80
2019-05-25T00:19:21.950Z,17.80
2019-05-25T00:21:49.615Z,17.70
2019-05-25T00:24:17.282Z,17.60
2019-05-25T00:26:44.921Z,17.50
2019-05-25T00:29:12.715Z,17.30
2019-05-25T00:31:40.623Z,17.30
2019-05-25T00:34:09.570Z,17.30
2019-05-25T00:36:37.334Z,17.30
2019-05-25T00:39:05.980Z,17.30
2019-05-25T00:41:33.616Z,17.20
2019-05-25T00:44:01.242Z,17.20
2019-05-25T00:46:28.918Z,17.20
2019-05-25T00:48:56.599Z,17.10
2019-05-25T00:51:24.314Z,17.10
2019-05-25T00:53:53.721Z,17.30
2019-05-25T00:56:21.357Z,17.10
2019-05-25T00:58:49.022Z,17.10
2019-05-25T01:01:16.702Z,17.20
2019-05-25T01:03:44.369Z,17.10
2019-05-25T01:06:12.048Z,17.10
2019-05-25T01:08:39.826Z,16.80
2019-05-25T01:11:07.485Z,16.70
2019-05-25T01:13:35.259Z,16.60
2019-05-25T01:16:03.092Z,16.60
2019-05-25T01:18:30.715Z,16.60
2019-05-25T01:20:58.457Z,16.60
2019-05-25T01:23:26.101Z,16.40
2019-05-25T01:25:53.773Z,16.40
2019-05-25T01:28:21.586Z,16.40
2019-05-25T01:30:49.229Z,16.40
2019-05-25T01:33:17.088Z,16.50
2019-05-25T01:35:44.882Z,16.50
2019-05-25T01:38:12.558Z,16.60
2019-05-25T01:40:40.334Z,16.70
2019-05-25T01:43:08.045Z,16.60
2019-05-25T01:45:35.694Z,16.60
2019-05-25T01:48:03.320Z,16.60
2019-05-25T01:50:30.978Z,16.40
2019-05-25T01:52:58.698Z,16.50
2019-05-25T01:55:26.353Z,16.20
2019-05-25T01:57:53.989Z,16.10
2019-05-25T02:00:21.857Z,15.90
2019-05-25T02:02:49.478Z,16.00
2019-05-25T02:05:17.122Z,16.00
2019-05-25T02:07:44.755Z,16.00
2019-05-25T02:10:12.847Z,16.10
2019-05-25T02:12:40.588Z,16.30
2019-05-25T02:15:08.600Z,16.20
2019-05-25T02:17:36.321Z,16.30
2019-05-25T02:20:04.878Z,16.40
2019-05-25T02:22:32.571Z,16.20
2019-05-25T02:25:16.500Z,16.20
2019-05-25T02:27:29.786Z,16.20
2019-05-25T02:29:57.437Z,16.20
2019-05-25T02:32:25.085Z,16.20
2019-05-25T02:34:52.728Z,16.10
2019-05-25T02:37:20.381Z,16.00
2019-05-25T02:39:47.999Z,15.90
2019-05-25T02:42:16.762Z,16.00
2019-05-25T02:44:44.389Z,16.00
2019-05-25T02:47:12.133Z,16.00
2019-05-25T02:49:39.885Z,15.90
2019-05-25T02:52:07.638Z,15.90
2019-05-25T02:54:35.327Z,15.80
2019-05-25T02:57:03.269Z,16.00
2019-05-25T02:59:30.922Z,15.80
2019-05-25T03:01:58.601Z,15.80
2019-05-25T03:04:26.245Z,15.80
2019-05-25T03:06:54.184Z,15.90
2019-05-25T03:09:24.472Z,15.80
2019-05-25T03:11:52.722Z,15.60
2019-05-25T03:14:20.398Z,15.60
2019-05-25T03:16:48.044Z,15.60
2019-05-25T03:19:16.114Z,15.60
2019-05-25T03:21:43.869Z,15.80
2019-05-25T03:24:11.661Z,15.90
2019-05-25T03:26:39.284Z,16.10
2019-05-25T03:29:07.000Z,16.00
2019-05-25T03:31:34.684Z,15.70
2019-05-25T03:34:02.316Z,15.50
2019-05-25T03:36:29.966Z,15.60
2019-05-25T03:38:57.922Z,15.50
2019-05-25T03:41:25.555Z,15.40
2019-05-25T03:43:53.243Z,15.20
2019-05-25T03:46:20.996Z,15.40
2019-05-25T03:48:48.705Z,15.60
2019-05-25T03:51:16.369Z,15.80
2019-05-25T03:53:44.114Z,15.70
2019-05-25T03:56:11.753Z,15.50
2019-05-25T03:58:39.696Z,15.60
2019-05-25T04:01:08.104Z,15.70
2019-05-25T04:03:35.717Z,15.60
2019-05-25T04:06:03.386Z,15.60
2019-05-25T04:08:32.809Z,15.50
2019-05-25T04:11:01.559Z,15.40
2019-05-25T04:13:30.421Z,15.50
2019-05-25T04:16:00.741Z,15.50
2019-05-25T04:18:29.130Z,15.50
2019-05-25T04:20:56.893Z,15.50
2019-05-25T04:23:24.568Z,15.50
2019-05-25T04:25:52.198Z,15.30
2019-05-25T04:28:19.914Z,15.30
2019-05-25T04:30:47.602Z,15.40
2019-05-25T04:33:15.243Z,15.40
2019-05-25T04:35:42.945Z,15.40
2019-05-25T04:38:10.601Z,15.50
2019-05-25T04:40:38.226Z,15.30
2019-05-25T04:43:05.914Z,15.30
2019-05-25T04:45:33.629Z,15.30
2019-05-25T04:48:01.342Z,15.20
2019-05-25T04:50:28.992Z,15.30
2019-05-25T04:52:56.741Z,15.10
2019-05-25T04:55:24.518Z,15.30
2019-05-25T04:57:52.185Z,15.30
2019-05-25T05:00:19.876Z,15.40
2019-05-25T05:02:47.553Z,15.40
2019-05-25T05:05:15.402Z,15.50
2019-05-25T05:07:43.081Z,15.60
2019-05-25T05:10:10.881Z,15.70
2019-05-25T05:12:38.519Z,15.50
2019-05-25T05:15:06.800Z,15.60
2019-05-25T05:17:34.425Z,15.70
2019-05-25T05:20:02.372Z,15.70
2019-05-25T05:22:30.038Z,15.70
2019-05-25T05:24:57.772Z,15.80
2019-05-25T05:27:25.433Z,15.80
2019-05-25T05:29:53.097Z,15.80
2019-05-25T05:32:27.644Z,16.00
2019-05-25T05:34:50.285Z,16.00
2019-05-25T05:37:18.554Z,16.10
2019-05-25T05:39:46.631Z,16.10
2019-05-25T05:42:15.357Z,16.20
2019-05-25T05:44:45.458Z,16.30
2019-05-25T05:47:14.057Z,16.40
2019-05-25T05:49:43.433Z,16.50
2019-05-25T05:52:15.114Z,16.60
2019-05-25T05:54:45.077Z,16.70
2019-05-25T05:57:13.042Z,16.90
2019-05-25T05:59:40.821Z,17.00
2019-05-25T06:02:08.513Z,17.10
2019-05-25T06:04:36.174Z,17.20
2019-05-25T06:07:03.907Z,17.30
2019-05-25T06:09:31.597Z,17.40
2019-05-25T06:11:59.286Z,17.40
2019-05-25T06:14:26.933Z,17.50
2019-05-25T06:16:54.668Z,17.50
2019-05-25T06:19:23.542Z,17.60
2019-05-25T06:21:51.206Z,17.70
2019-05-25T06:24:19.001Z,17.80
2019-05-25T06:26:46.754Z,17.90
2019-05-25T06:29:14.384Z,18.00
2019-05-25T06:31:42.104Z,18.10
2019-05-25T06:34:10.852Z,18.10
2019-05-25T06:36:39.602Z,18.00
2019-05-25T06:39:08.733Z,18.10
2019-05-25T06:41:36.376Z,18.20
2019-05-25T06:44:04.381Z,18.50
2019-05-25T06:46:32.138Z,18.70
2019-05-25T06:49:00.014Z,19.00
2019-05-25T06:51:27.636Z,19.10
2019-05-25T06:53:55.311Z,19.20
2019-05-25T06:56:22.963Z,19.30
2019-05-25T06:58:50.845Z,19.20
2019-05-25T07:01:19.015Z,19.40
2019-05-25T07:03:46.776Z,19.50
2019-05-25T07:06:14.598Z,19.60
2019-05-25T07:08:43.489Z,19.50
2019-05-25T07:11:11.253Z,19.50
2019-05-25T07:13:38.945Z,19.50
2019-05-25T07:16:07.746Z,19.60
2019-05-25T07:18:35.778Z,19.70
2019-05-25T07:21:04.065Z,19.80
2019-05-25T07:23:31.698Z,20.10
2019-05-25T07:25:59.361Z,20.30
2019-05-25T07:28:27.025Z,20.50
2019-05-25T07:30:54.818Z,20.70
2019-05-25T07:33:22.466Z,20.90
2019-05-25T07:35:50.142Z,21.00
2019-05-25T07:38:17.885Z,21.00
2019-05-25T07:40:45.682Z,21.10
2019-05-25T07:43:13.448Z,21.20
2019-05-25T07:45:41.226Z,21.30
2019-05-25T07:48:08.936Z,21.30
2019-05-25T07:50:36.613Z,21.30
2019-05-25T07:53:04.274Z,21.40
2019-05-25T07:55:31.914Z,21.30
2019-05-25T07:58:15.846Z,21.00
2019-05-25T08:00:29.115Z,20.90
2019-05-25T08:02:57.245Z,21.00
2019-05-25T08:05:24.854Z,21.10
2019-05-25T08:07:52.594Z,21.30
2019-05-25T08:10:20.758Z,21.50
2019-05-25T08:12:50.233Z,21.40
2019-05-25T08:15:18.057Z,21.40
2019-05-25T08:17:45.757Z,21.40
2019-05-25T08:20:13.440Z,21.40
2019-05-25T08:22:41.164Z,21.40
2019-05-25T08:25:09.519Z,21.60
2019-05-25T08:27:37.269Z,21.60
2019-05-25T08:30:05.430Z,21.70
2019-05-25T08:32:33.374Z,21.80
2019-05-25T08:35:01.262Z,22.00
2019-05-25T08:37:29.132Z,22.20
2019-05-25T08:39:58.664Z,22.50
2019-05-25T08:42:26.225Z,22.60
2019-05-25T08:44:53.924Z,22.60
2019-05-25T08:47:21.646Z,22.70
2019-05-25T08:49:50.271Z,22.60
2019-05-25T08:52:17.956Z,22.60
2019-05-25T08:54:45.632Z,22.70
2019-05-25T08:57:18.404Z,22.70
2019-05-25T08:59:45.051Z,22.80
2019-05-25T09:02:13.467Z,23.10
2019-05-25T09:04:41.177Z,23.10
2019-05-25T09:07:08.794Z,23.10
2019-05-25T09:09:36.538Z,22.90
2019-05-25T09:12:04.193Z,22.90
2019-05-25T09:14:31.833Z,23.00
2019-05-25T09:17:00.707Z,22.90
2019-05-25T09:19:28.359Z,22.70
2019-05-25T09:22:02.534Z,22.40
2019-05-25T09:24:25.701Z,22.50
2019-05-25T09:26:53.328Z,22.60
2019-05-25T09:29:20.973Z,22.70
2019-05-25T09:31:48.634Z,22.90
2019-05-25T09:34:16.278Z,23.10
2019-05-25T09:36:44.245Z,23.20
2019-05-25T09:39:12.105Z,23.30
2019-05-25T09:41:39.758Z,23.00
2019-05-25T09:44:07.407Z,23.10
2019-05-25T09:46:35.048Z,23.10
2019-05-25T09:49:02.914Z,23.10
2019-05-25T09:51:30.544Z,23.10
2019-05-25T09:53:58.217Z,23.30
2019-05-25T09:56:25.860Z,23.40
2019-05-25T09:58:53.511Z,23.30
2019-05-25T10:01:21.182Z,23.20
2019-05-25T10:03:49.091Z,23.30
2019-05-25T10:06:16.778Z,23.30
2019-05-25T10:08:44.457Z,23.50
2019-05-25T10:11:12.183Z,23.60
2019-05-25T10:13:39.858Z,23.80
2019-05-25T10:16:07.596Z,24.20
2019-05-25T10:18:36.469Z,24.30
2019-05-25T10:21:04.125Z,24.20
2019-05-25T10:23:31.919Z,24.30
2019-05-25T10:25:59.576Z,24.60
2019-05-25T10:28:27.223Z,24.60
2019-05-25T10:30:54.896Z,24.60
2019-05-25T10:33:22.535Z,24.60
2019-05-25T10:35:50.165Z,24.50
2019-05-25T10:38:17.971Z,24.20
2019-05-25T10:40:45.595Z,24.30
2019-05-25T10:43:13.262Z,24.30
2019-05-25T10:45:40.997Z,24.50
2019-05-25T10:48:08.754Z,24.50
2019-05-25T10:50:36.402Z,24.20
2019-05-25T10:53:04.187Z,24.00
2019-05-25T10:55:32.002Z,24.20
2019-05-25T10:57:59.665Z,24.20
2019-05-25T11:00:27.986Z,24.00
2019-05-25T11:02:55.735Z,24.10
2019-05-25T11:05:23.909Z,24.10
2019-05-25T11:07:51.628Z,24.20
2019-05-25T11:10:19.361Z,24.10
2019-05-25T11:12:47.257Z,24.10
2019-05-25T11:15:16.391Z,24.10
2019-05-25T11:17:44.085Z,24.30
2019-05-25T11:20:12.530Z,24.70
2019-05-25T11:22:40.221Z,24.80
2019-05-25T11:25:08.350Z,24.80
2019-05-25T11:27:36.055Z,24.50
2019-05-25T11:30:16.176Z,24.50
2019-05-25T11:32:44.433Z,24.40
2019-05-25T11:35:14.665Z,24.50
2019-05-25T11:37:42.306Z,24.60
2019-05-25T11:40:10.606Z,24.90
2019-05-25T11:42:38.257Z,25.10
2019-05-25T11:45:06.506Z,25.30
2019-05-25T11:47:34.236Z,25.50
2019-05-25T11:50:01.890Z,25.30
2019-05-25T11:52:29.922Z,24.90
2019-05-25T11:54:58.791Z,24.80
2019-05-25T11:57:26.459Z,24.70
2019-05-25T11:59:54.135Z,24.70
2019-05-25T12:02:21.794Z,24.60
2019-05-25T12:04:49.471Z,24.50
2019-05-25T12:07:17.207Z,24.50
2019-05-25T12:09:45.093Z,24.40
2019-05-25T12:12:12.776Z,24.50
2019-05-25T12:14:40.425Z,24.60
2019-05-25T12:17:08.080Z,24.50
2019-05-25T12:19:35.733Z,24.40
2019-05-25T12:22:03.471Z,24.50
2019-05-25T12:24:31.200Z,24.60
2019-05-25T12:26:58.956Z,24.40
2019-05-25T12:29:28.433Z,24.10
2019-05-25T12:32:04.123Z,23.80
2019-05-25T12:34:25.675Z,23.80
2019-05-25T12:36:53.420Z,23.60
2019-05-25T12:39:21.099Z,23.30
2019-05-25T12:41:48.781Z,23.20
2019-05-25T12:44:16.508Z,22.80
2019-05-25T12:46:44.189Z,22.80
2019-05-25T12:49:11.842Z,22.50
2019-05-25T12:51:39.511Z,22.50
2019-05-25T12:54:07.251Z,22.40
2019-05-25T12:56:34.906Z,22.40
2019-05-25T12:59:02.694Z,22.40
2019-05-25T13:01:30.405Z,22.30
2019-05-25T13:03:58.051Z,22.20
2019-05-25T13:06:25.753Z,22.10
2019-05-25T13:08:53.413Z,22.10
2019-05-25T13:11:21.104Z,22.30
2019-05-25T13:13:48.790Z,22.40
2019-05-25T13:16:16.466Z,22.50
2019-05-25T13:18:44.210Z,22.30
2019-05-25T13:21:11.939Z,22.40
2019-05-25T13:23:39.740Z,22.40
2019-05-25T13:26:07.393Z,22.50
2019-05-25T13:28:35.068Z,22.60
2019-05-25T13:31:11.394Z,22.70
2019-05-25T13:33:32.376Z,22.60
2019-05-25T13:36:00.000Z,22.30
2019-05-25T13:38:27.642Z,22.00
2019-05-25T13:40:55.382Z,21.80
2019-05-25T13:43:23.109Z,21.70
2019-05-25T13:45:50.872Z,21.70
2019-05-25T13:48:18.766Z,21.80
2019-05-25T13:50:46.539Z,21.80
2019-05-25T13:53:14.250Z,22.00
2019-05-25T13:55:41.983Z,22.10
2019-05-25T13:58:09.671Z,22.00
2019-05-25T14:00:37.401Z,22.00
2019-05-25T14:03:05.132Z,22.20
2019-05-25T14:05:32.807Z,22.30
2019-05-25T14:08:00.555Z,22.30
2019-05-25T14:10:28.206Z,22.20
2019-05-25T14:12:56.108Z,22.20
2019-05-25T14:15:23.809Z,22.30
2019-05-25T14:17:51.520Z,22.30
2019-05-25T14:20:19.994Z,22.50
2019-05-25T14:22:47.742Z,22.40
2019-05-25T14:25:15.606Z,22.40
2019-05-25T14:27:43.349Z,22.40
2019-05-25T14:30:11.379Z,22.70
2019-05-25T14:32:39.284Z,23.00
2019-05-25T14:35:07.093Z,23.10
2019-05-25T14:37:34.774Z,23.20
2019-05-25T14:40:04.373Z,23.40
2019-05-25T14:42:32.134Z,23.60
2019-05-25T14:44:59.867Z,23.80
2019-05-25T14:47:27.891Z,23.80
2019-05-25T14:49:55.909Z,23.80
2019-05-25T14:52:23.737Z,23.80
2019-05-25T14:54:51.369Z,23.90
2019-05-25T14:57:19.111Z,24.00
2019-05-25T14:59:46.817Z,24.10
2019-05-25T15:02:14.524Z,23.80
2019-05-25T15:04:42.193Z,24.00
2019-05-25T15:07:09.865Z,24.20
2019-05-25T15:09:37.657Z,24.20
2019-05-25T15:12:05.375Z,24.30
2019-05-25T15:14:33.081Z,24.30
2019-05-25T15:17:00.794Z,24.40
2019-05-25T15:19:28.497Z,24.20
2019-05-25T15:21:56.511Z,24.10
2019-05-25T15:24:24.537Z,24.10
2019-05-25T15:26:52.354Z,24.10
2019-05-25T15:29:20.286Z,24.10
2019-05-25T15:31:48.383Z,24.30
2019-05-25T15:34:16.429Z,24.40
2019-05-25T15:36:44.190Z,24.50
2019-05-25T15:39:11.983Z,24.40
2019-05-25T15:41:39.665Z,24.30
2019-05-25T15:44:07.429Z,24.10
2019-05-25T15:46:35.176Z,24.00
2019-05-25T15:49:03.269Z,23.90
2019-05-25T15:51:31.099Z,23.80
2019-05-25T15:53:58.881Z,23.50
2019-05-25T15:56:26.682Z,23.50
2019-05-25T15:58:54.580Z,23.30
2019-05-25T16:01:22.304Z,23.30
2019-05-25T16:03:50.153Z,23.50
2019-05-25T16:06:17.969Z,23.60
2019-05-25T16:08:45.765Z,23.40
2019-05-25T16:11:13.592Z,23.30
2019-05-25T16:13:41.354Z,23.10
2019-05-25T16:16:09.218Z,22.90
2019-05-25T16:18:36.851Z,22.90
2019-05-25T16:21:04.551Z,23.20
2019-05-25T16:23:32.372Z,23.40
2019-05-25T16:26:00.165Z,23.60
2019-05-25T16:28:27.913Z,23.60
2019-05-25T16:30:55.653Z,23.60
2019-05-25T16:33:23.636Z,23.70
2019-05-25T16:35:52.250Z,23.80
2019-05-25T16:38:20.064Z,23.90
2019-05-25T16:40:47.833Z,23.90
2019-05-25T16:43:15.476Z,23.80
2019-05-25T16:45:43.638Z,23.70
2019-05-25T16:48:11.677Z,23.70
2019-05-25T16:50:39.371Z,23.70
2019-05-25T16:53:07.002Z,23.60
2019-05-25T16:55:34.643Z,23.40
2019-05-25T16:58:03.436Z,23.30
2019-05-25T17:00:32.100Z,23.30
2019-05-25T17:02:59.793Z,23.20
2019-05-25T17:05:27.943Z,23.20
2019-05-25T17:07:56.017Z,23.20
2019-05-25T17:10:23.821Z,23.30
2019-05-25T17:12:51.477Z,23.30
2019-05-25T17:15:19.173Z,23.30
2019-05-25T17:17:46.867Z,23.40
2019-05-25T17:20:15.617Z,23.40
2019-05-25T17:22:43.335Z,23.40
2019-05-25T17:25:11.139Z,23.40
2019-05-25T17:27:38.857Z,23.40
2019-05-25T17:30:07.552Z,23.40
2019-05-25T17:32:35.256Z,23.30
2019-05-25T17:35:03.545Z,23.50
2019-05-25T17:37:31.231Z,23.30
2019-05-25T17:39:58.908Z,23.20
2019-05-25T17:42:26.657Z,23.10
2019-05-25T17:44:54.371Z,23.10
2019-05-25T17:47:22.117Z,23.10
2019-05-25T17:49:49.959Z,23.00
2019-05-25T17:52:17.725Z,22.90
2019-05-25T17:54:45.491Z,23.00
2019-05-25T17:57:14.312Z,23.00
2019-05-25T17:59:42.071Z,23.00
2019-05-25T18:02:09.753Z,23.00
2019-05-25T18:04:37.474Z,22.90
2019-05-25T18:07:05.298Z,22.90
2019-05-25T18:09:33.686Z,22.90
2019-05-25T18:12:01.407Z,22.90
2019-05-25T18:14:29.166Z,22.80
2019-05-25T18:16:56.912Z,22.70
2019-05-25T18:19:24.860Z,22.70
2019-05-25T18:21:53.706Z,22.50
2019-05-25T18:24:21.510Z,22.30
2019-05-25T18:26:49.209Z,22.30
2019-05-25T18:29:16.875Z,22.30
2019-05-25T18:31:44.565Z,22.30
2019-05-25T18:34:21.819Z,22.30
2019-05-25T18:36:41.827Z,22.30
2019-05-25T18:39:09.620Z,22.30
2019-05-25T18:41:37.307Z,22.20
2019-05-25T18:44:05.076Z,22.10
2019-05-25T18:46:32.753Z,22.00
2019-05-25T18:49:00.503Z,21.90
2019-05-25T18:51:28.340Z,21.80
2019-05-25T18:53:56.024Z,21.80
2019-05-25T18:56:24.713Z,21.70
2019-05-25T18:58:52.393Z,21.70
2019-05-25T19:01:20.161Z,21.60
2019-05-25T19:03:47.816Z,21.60
2019-05-25T19:06:15.610Z,21.50
2019-05-25T19:08:44.140Z,21.50
2019-05-25T19:11:11.985Z,21.40
2019-05-25T19:13:39.688Z,21.30
2019-05-25T19:16:07.389Z,21.20
2019-05-25T19:18:35.070Z,21.00
2019-05-25T19:21:02.774Z,20.90
2019-05-25T19:23:30.567Z,20.80
2019-05-25T19:25:58.239Z,20.70
2019-05-25T19:28:25.877Z,20.60
2019-05-25T19:30:53.749Z,20.60
2019-05-25T19:33:21.497Z,20.50
2019-05-25T19:35:49.160Z,20.40
2019-05-25T19:38:16.938Z,20.30
2019-05-25T19:40:44.677Z,20.10
2019-05-25T19:43:12.337Z,20.00
2019-05-25T19:45:39.998Z,19.90
2019-05-25T19:48:07.858Z,19.80
2019-05-25T19:50:35.597Z,19.90
2019-05-25T19:53:08.087Z,19.80
2019-05-25T19:55:35.919Z,19.70
2019-05-25T19:58:03.628Z,19.60
2019-05-25T20:00:33.211Z,19.40
2019-05-25T20:03:02.451Z,19.30
2019-05-25T20:05:30.144Z,19.10
2019-05-25T20:07:57.874Z,19.10
2019-05-25T20:10:25.521Z,19.10
2019-05-25T20:12:53.211Z,19.30
2019-05-25T20:15:20.922Z,19.40
2019-05-25T20:17:48.589Z,19.50
2019-05-25T20:20:16.459Z,19.40
2019-05-25T20:22:44.186Z,19.10
2019-05-25T20:25:11.933Z,19.10
2019-05-25T20:27:39.620Z,18.90
2019-05-25T20:30:07.577Z,18.90
2019-05-25T20:32:36.357Z,18.70
2019-05-25T20:35:04.110Z,18.60
2019-05-25T20:37:31.789Z,18.80
2019-05-25T20:39:59.433Z,18.90
2019-05-25T20:42:27.218Z,18.80
2019-05-25T20:44:54.839Z,18.80
2019-05-25T20:47:22.561Z,18.80
2019-05-25T20:49:50.173Z,18.90
2019-05-25T20:52:17.930Z,19.10
2019-05-25T20:54:45.595Z,18.90
2019-05-25T20:57:13.270Z,18.40
2019-05-25T20:59:40.929Z,18.40
2019-05-25T21:02:08.589Z,18.50
2019-05-25T21:04:36.326Z,18.30
2019-05-25T21:07:04.069Z,18.10
2019-05-25T21:09:31.732Z,18.40
2019-05-25T21:11:59.467Z,18.70
2019-05-25T21:14:27.119Z,18.90
2019-05-25T21:16:54.916Z,18.90
2019-05-25T21:19:22.520Z,19.10
2019-05-25T21:21:50.223Z,19.00
2019-05-25T21:24:17.900Z,19.10
2019-05-25T21:26:45.637Z,19.00
2019-05-25T21:29:13.279Z,19.10
2019-05-25T21:31:40.958Z,19.10
2019-05-25T21:34:08.646Z,19.00
2019-05-25T21:36:36.326Z,18.90
2019-05-25T21:39:05.837Z,18.70
2019-05-25T21:41:33.543Z,18.50
2019-05-25T21:44:01.280Z,18.50
2019-05-25T21:46:29.021Z,18.40
2019-05-25T21:48:58.578Z,18.40
2019-05-25T21:51:26.213Z,18.30
2019-05-25T21:53:53.918Z,18.40
2019-05-25T21:56:21.593Z,18.60
2019-05-25T21:58:49.262Z,18.50
2019-05-25T22:01:17.226Z,18.50
2019-05-25T22:03:44.865Z,18.60
2019-05-25T22:06:23.937Z,18.50
2019-05-25T22:08:42.210Z,18.30
2019-05-25T22:11:09.895Z,18.20
2019-05-25T22:13:37.541Z,18.20
2019-05-25T22:16:05.202Z,18.10
2019-05-25T22:18:32.878Z,18.10
2019-05-25T22:21:01.537Z,17.90
2019-05-25T22:23:29.509Z,17.90
2019-05-25T22:25:58.173Z,17.80
2019-05-25T22:28:25.969Z,17.70
2019-05-25T22:30:53.601Z,17.80
2019-05-25T22:33:21.262Z,17.80
2019-05-25T22:35:48.946Z,17.80
2019-05-25T22:38:16.686Z,17.90
2019-05-25T22:40:44.480Z,17.90
2019-05-25T22:43:12.269Z,18.00
2019-05-25T22:45:39.976Z,18.00
2019-05-25T22:48:07.750Z,18.10
2019-05-25T22:50:36.510Z,18.00
2019-05-25T22:53:04.233Z,18.00
2019-05-25T22:55:31.978Z,18.00
2019-05-25T22:57:59.673Z,17.90
2019-05-25T23:00:27.368Z,17.90
2019-05-25T23:02:55.081Z,18.00
2019-05-25T23:05:22.758Z,18.00
2019-05-25T23:07:50.525Z,18.00
2019-05-25T23:10:18.358Z,18.10
2019-05-25T23:12:46.004Z,18.30
2019-05-25T23:15:13.749Z,18.40
2019-05-25T23:17:41.449Z,18.30
2019-05-25T23:20:09.501Z,18.20
2019-05-25T23:22:37.133Z,18.00
2019-05-25T23:25:05.897Z,18.10
2019-05-25T23:27:33.559Z,18.30
2019-05-25T23:30:01.245Z,18.20
2019-05-25T23:32:28.877Z,18.10
2019-05-25T23:34:56.604Z,18.20
2019-05-25T23:37:24.284Z,18.40
2019-05-25T23:39:51.961Z,18.40
2019-05-25T23:42:19.668Z,18.20
2019-05-25T23:44:47.357Z,18.20
2019-05-25T23:47:15.175Z,18.10
2019-05-25T23:49:42.933Z,18.20
2019-05-25T23:52:10.768Z,18.10
2019-05-25T23:54:38.502Z,18.00
2019-05-25T23:57:06.198Z,17.90
2019-05-25T23:59:33.836Z,17.70
